Current Weather

Al Kharj

Al Kharj, Saudi Arabia (OEKJ)

Report from: Wednesday, September 28, 2022 10:00 AM UTC
Current time: Wednesday, September 28, 2022 10:45 AM UTC

Nearby weather
Weather history
Weather forecast

Temperature38.0°C (100.4°F)
Heat index35.0°C (95.0°F)
Dew point-2.0°C (28.4°F)
Winds 12 kts (6.2 m/s, 13.8 mph) North (10°)
Clouds Sky clear
Altimeter29.91 in.Hg (1013 mB)
Relative humidity8 %
Density altitude2,691 ft. (820 m)
Remarks Ceiling and visibility OK
Flight conditions Visual Meteorological Conditions
Raw dataOEKJ 281000Z 01012KT CAVOK 38/M02 Q1013
An error has occurred. This application may no longer respond until reloaded. Reload 🗙